sensor_id;sensor_type;location;lat;lon;timestamp;P1;durP1;ratioP1;P2;durP2;ratioP2
16063;SDS011;8136;53.172;8.256;2023-07-09T00:02:25;7.17;;;3.77;;
16063;SDS011;8136;53.172;8.256;2023-07-09T00:04:53;4.83;;;3.73;;
16063;SDS011;8136;53.172;8.256;2023-07-09T00:07:24;7.57;;;3.60;;
16063;SDS011;8136;53.172;8.256;2023-07-09T00:09:57;4.50;;;3.53;;
16063;SDS011;8136;53.172;8.256;2023-07-09T00:12:28;6.30;;;3.73;;
16063;SDS011;8136;53.172;8.256;2023-07-09T00:14:54;8.93;;;3.80;;
16063;SDS011;8136;53.172;8.256;2023-07-09T00:17:23;5.87;;;3.87;;
16063;SDS011;8136;53.172;8.256;2023-07-09T00:19:59;4.63;;;3.77;;
16063;SDS011;8136;53.172;8.256;2023-07-09T00:22:26;4.70;;;3.73;;
16063;SDS011;8136;53.172;8.256;2023-07-09T00:24:53;6.40;;;3.93;;
16063;SDS011;8136;53.172;8.256;2023-07-09T00:27:53;5.87;;;3.77;;
16063;SDS011;8136;53.172;8.256;2023-07-09T00:30:30;5.00;;;3.43;;
16063;SDS011;8136;53.172;8.256;2023-07-09T00:33:09;8.07;;;3.93;;
16063;SDS011;8136;53.172;8.256;2023-07-09T00:35:40;7.27;;;4.30;;
16063;SDS011;8136;53.172;8.256;2023-07-09T00:38:14;6.40;;;3.63;;
16063;SDS011;8136;53.172;8.256;2023-07-09T00:40:46;6.40;;;4.13;;
16063;SDS011;8136;53.172;8.256;2023-07-09T00:43:28;5.43;;;4.13;;
16063;SDS011;8136;53.172;8.256;2023-07-09T00:46:17;5.40;;;4.00;;
16063;SDS011;8136;53.172;8.256;2023-07-09T00:49:01;4.33;;;3.90;;
16063;SDS011;8136;53.172;8.256;2023-07-09T00:51:36;3.97;;;3.57;;
16063;SDS011;8136;53.172;8.256;2023-07-09T00:54:09;4.33;;;3.87;;
16063;SDS011;8136;53.172;8.256;2023-07-09T00:56:41;6.30;;;4.03;;
16063;SDS011;8136;53.172;8.256;2023-07-09T00:59:12;4.90;;;4.30;;
16063;SDS011;8136;53.172;8.256;2023-07-09T01:01:43;5.17;;;4.30;;
16063;SDS011;8136;53.172;8.256;2023-07-09T01:04:15;6.13;;;4.17;;
16063;SDS011;8136;53.172;8.256;2023-07-09T01:06:54;7.03;;;4.57;;
16063;SDS011;8136;53.172;8.256;2023-07-09T01:09:34;5.77;;;4.23;;
16063;SDS011;8136;53.172;8.256;2023-07-09T01:12:18;5.27;;;4.17;;
16063;SDS011;8136;53.172;8.256;2023-07-09T01:14:54;6.70;;;4.57;;
16063;SDS011;8136;53.172;8.256;2023-07-09T01:17:24;5.10;;;4.23;;
16063;SDS011;8136;53.172;8.256;2023-07-09T01:20:03;4.90;;;4.30;;
16063;SDS011;8136;53.172;8.256;2023-07-09T01:22:43;5.60;;;4.47;;
16063;SDS011;8136;53.172;8.256;2023-07-09T01:25:10;5.43;;;4.60;;
16063;SDS011;8136;53.172;8.256;2023-07-09T01:27:37;6.73;;;4.63;;
16063;SDS011;8136;53.172;8.256;2023-07-09T01:30:13;6.43;;;5.00;;
16063;SDS011;8136;53.172;8.256;2023-07-09T01:32:47;5.43;;;4.60;;
16063;SDS011;8136;53.172;8.256;2023-07-09T01:35:15;6.50;;;4.63;;
16063;SDS011;8136;53.172;8.256;2023-07-09T01:37:50;6.40;;;4.20;;
16063;SDS011;8136;53.172;8.256;2023-07-09T01:40:27;6.40;;;4.50;;
16063;SDS011;8136;53.172;8.256;2023-07-09T01:42:59;5.00;;;4.03;;
16063;SDS011;8136;53.172;8.256;2023-07-09T01:45:36;6.30;;;4.80;;
16063;SDS011;8136;53.172;8.256;2023-07-09T01:48:08;5.43;;;4.63;;
16063;SDS011;8136;53.172;8.256;2023-07-09T01:50:39;6.60;;;4.90;;
16063;SDS011;8136;53.172;8.256;2023-07-09T01:53:19;5.83;;;4.70;;
16063;SDS011;8136;53.172;8.256;2023-07-09T01:55:48;5.10;;;4.53;;
16063;SDS011;8136;53.172;8.256;2023-07-09T01:58:32;5.70;;;4.90;;
16063;SDS011;8136;53.172;8.256;2023-07-09T02:01:09;7.10;;;5.50;;
16063;SDS011;8136;53.172;8.256;2023-07-09T02:03:36;8.20;;;5.40;;
16063;SDS011;8136;53.172;8.256;2023-07-09T02:06:04;7.40;;;5.30;;
16063;SDS011;8136;53.172;8.256;2023-07-09T02:08:47;5.80;;;5.20;;
16063;SDS011;8136;53.172;8.256;2023-07-09T02:11:17;5.73;;;4.73;;
16063;SDS011;8136;53.172;8.256;2023-07-09T02:13:50;5.90;;;5.20;;
16063;SDS011;8136;53.172;8.256;2023-07-09T02:16:17;8.20;;;5.20;;
16063;SDS011;8136;53.172;8.256;2023-07-09T02:18:44;4.83;;;4.37;;
16063;SDS011;8136;53.172;8.256;2023-07-09T02:21:11;5.00;;;4.30;;
16063;SDS011;8136;53.172;8.256;2023-07-09T02:23:41;5.30;;;4.80;;
16063;SDS011;8136;53.172;8.256;2023-07-09T02:26:25;5.83;;;4.23;;
16063;SDS011;8136;53.172;8.256;2023-07-09T02:28:53;6.07;;;4.67;;
16063;SDS011;8136;53.172;8.256;2023-07-09T02:31:32;5.07;;;4.57;;
16063;SDS011;8136;53.172;8.256;2023-07-09T02:34:00;6.03;;;4.93;;
16063;SDS011;8136;53.172;8.256;2023-07-09T02:36:30;5.23;;;4.43;;
16063;SDS011;8136;53.172;8.256;2023-07-09T02:38:58;9.13;;;5.03;;
16063;SDS011;8136;53.172;8.256;2023-07-09T02:41:28;6.73;;;4.87;;
16063;SDS011;8136;53.172;8.256;2023-07-09T02:44:00;5.97;;;4.33;;
16063;SDS011;8136;53.172;8.256;2023-07-09T02:46:26;5.87;;;4.60;;
16063;SDS011;8136;53.172;8.256;2023-07-09T02:48:55;4.70;;;4.23;;
16063;SDS011;8136;53.172;8.256;2023-07-09T02:51:24;6.10;;;4.90;;
16063;SDS011;8136;53.172;8.256;2023-07-09T02:53:56;5.73;;;4.73;;
16063;SDS011;8136;53.172;8.256;2023-07-09T02:56:29;6.43;;;4.90;;
16063;SDS011;8136;53.172;8.256;2023-07-09T02:58:59;5.07;;;4.57;;
16063;SDS011;8136;53.172;8.256;2023-07-09T03:01:29;5.37;;;4.37;;
16063;SDS011;8136;53.172;8.256;2023-07-09T03:04:01;6.03;;;4.80;;
16063;SDS011;8136;53.172;8.256;2023-07-09T03:06:29;6.27;;;5.20;;
16063;SDS011;8136;53.172;8.256;2023-07-09T03:09:00;5.47;;;4.47;;
16063;SDS011;8136;53.172;8.256;2023-07-09T03:11:28;4.63;;;4.20;;
16063;SDS011;8136;53.172;8.256;2023-07-09T03:13:56;8.03;;;4.83;;
16063;SDS011;8136;53.172;8.256;2023-07-09T03:16:25;6.07;;;5.13;;
16063;SDS011;8136;53.172;8.256;2023-07-09T03:18:53;5.90;;;4.87;;
16063;SDS011;8136;53.172;8.256;2023-07-09T03:21:20;4.80;;;4.30;;
16063;SDS011;8136;53.172;8.256;2023-07-09T03:23:49;5.37;;;4.43;;
16063;SDS011;8136;53.172;8.256;2023-07-09T03:26:17;6.37;;;4.77;;
16063;SDS011;8136;53.172;8.256;2023-07-09T03:28:53;5.40;;;4.30;;
16063;SDS011;8136;53.172;8.256;2023-07-09T03:31:20;6.30;;;4.80;;
16063;SDS011;8136;53.172;8.256;2023-07-09T03:33:47;7.07;;;5.00;;
16063;SDS011;8136;53.172;8.256;2023-07-09T03:36:14;5.23;;;4.53;;
16063;SDS011;8136;53.172;8.256;2023-07-09T03:38:45;5.30;;;4.60;;
16063;SDS011;8136;53.172;8.256;2023-07-09T03:41:12;6.63;;;4.80;;
16063;SDS011;8136;53.172;8.256;2023-07-09T03:43:43;5.90;;;4.73;;
16063;SDS011;8136;53.172;8.256;2023-07-09T03:46:10;6.93;;;5.13;;
16063;SDS011;8136;53.172;8.256;2023-07-09T03:48:37;7.57;;;5.10;;
16063;SDS011;8136;53.172;8.256;2023-07-09T03:51:04;7.60;;;5.20;;
16063;SDS011;8136;53.172;8.256;2023-07-09T03:53:31;6.17;;;5.60;;
16063;SDS011;8136;53.172;8.256;2023-07-09T03:55:58;7.23;;;5.50;;
16063;SDS011;8136;53.172;8.256;2023-07-09T03:58:29;6.43;;;5.10;;
16063;SDS011;8136;53.172;8.256;2023-07-09T04:00:56;5.93;;;5.20;;
16063;SDS011;8136;53.172;8.256;2023-07-09T04:03:23;5.43;;;4.90;;
16063;SDS011;8136;53.172;8.256;2023-07-09T04:05:50;6.80;;;5.47;;
16063;SDS011;8136;53.172;8.256;2023-07-09T04:08:17;7.67;;;5.17;;
16063;SDS011;8136;53.172;8.256;2023-07-09T04:10:45;9.97;;;5.60;;
16063;SDS011;8136;53.172;8.256;2023-07-09T04:13:11;7.50;;;4.97;;
16063;SDS011;8136;53.172;8.256;2023-07-09T04:15:40;7.00;;;6.03;;
16063;SDS011;8136;53.172;8.256;2023-07-09T04:18:06;8.07;;;5.90;;
16063;SDS011;8136;53.172;8.256;2023-07-09T04:20:33;6.53;;;4.90;;
16063;SDS011;8136;53.172;8.256;2023-07-09T04:23:05;5.30;;;4.80;;
16063;SDS011;8136;53.172;8.256;2023-07-09T04:25:32;6.13;;;5.53;;
16063;SDS011;8136;53.172;8.256;2023-07-09T04:28:00;6.80;;;5.30;;
16063;SDS011;8136;53.172;8.256;2023-07-09T04:30:27;7.77;;;5.30;;
16063;SDS011;8136;53.172;8.256;2023-07-09T04:32:57;6.50;;;5.70;;
16063;SDS011;8136;53.172;8.256;2023-07-09T04:35:24;6.13;;;4.70;;
16063;SDS011;8136;53.172;8.256;2023-07-09T04:37:50;5.77;;;4.43;;
16063;SDS011;8136;53.172;8.256;2023-07-09T04:40:17;5.23;;;4.70;;
16063;SDS011;8136;53.172;8.256;2023-07-09T04:42:44;5.90;;;5.13;;
16063;SDS011;8136;53.172;8.256;2023-07-09T04:45:11;7.10;;;4.80;;
16063;SDS011;8136;53.172;8.256;2023-07-09T04:47:40;6.67;;;5.13;;
16063;SDS011;8136;53.172;8.256;2023-07-09T04:50:08;5.37;;;4.87;;
16063;SDS011;8136;53.172;8.256;2023-07-09T04:52:36;5.60;;;5.07;;
16063;SDS011;8136;53.172;8.256;2023-07-09T04:55:06;5.73;;;4.50;;
16063;SDS011;8136;53.172;8.256;2023-07-09T04:57:33;5.77;;;4.43;;
16063;SDS011;8136;53.172;8.256;2023-07-09T05:00:00;6.97;;;5.50;;
16063;SDS011;8136;53.172;8.256;2023-07-09T05:02:29;5.20;;;4.60;;
16063;SDS011;8136;53.172;8.256;2023-07-09T05:04:57;5.20;;;4.63;;
16063;SDS011;8136;53.172;8.256;2023-07-09T05:07:27;5.67;;;5.03;;
16063;SDS011;8136;53.172;8.256;2023-07-09T05:09:54;8.07;;;4.77;;
16063;SDS011;8136;53.172;8.256;2023-07-09T05:12:20;5.60;;;4.97;;
16063;SDS011;8136;53.172;8.256;2023-07-09T05:14:49;5.97;;;5.00;;
16063;SDS011;8136;53.172;8.256;2023-07-09T05:17:16;5.27;;;4.73;;
16063;SDS011;8136;53.172;8.256;2023-07-09T05:19:47;6.47;;;5.13;;
16063;SDS011;8136;53.172;8.256;2023-07-09T05:22:16;5.67;;;4.83;;
16063;SDS011;8136;53.172;8.256;2023-07-09T05:24:45;8.40;;;4.83;;
16063;SDS011;8136;53.172;8.256;2023-07-09T05:27:11;6.13;;;4.80;;
16063;SDS011;8136;53.172;8.256;2023-07-09T05:29:43;7.03;;;5.27;;
16063;SDS011;8136;53.172;8.256;2023-07-09T05:32:16;5.97;;;5.17;;
16063;SDS011;8136;53.172;8.256;2023-07-09T05:34:48;6.47;;;4.73;;
16063;SDS011;8136;53.172;8.256;2023-07-09T05:37:17;5.73;;;5.03;;
16063;SDS011;8136;53.172;8.256;2023-07-09T05:39:45;6.80;;;5.03;;
16063;SDS011;8136;53.172;8.256;2023-07-09T05:42:15;5.43;;;4.87;;
16063;SDS011;8136;53.172;8.256;2023-07-09T05:44:44;5.07;;;4.57;;
16063;SDS011;8136;53.172;8.256;2023-07-09T05:47:17;5.90;;;5.17;;
16063;SDS011;8136;53.172;8.256;2023-07-09T05:49:46;5.80;;;4.80;;
16063;SDS011;8136;53.172;8.256;2023-07-09T05:52:15;5.77;;;4.87;;
16063;SDS011;8136;53.172;8.256;2023-07-09T05:54:54;5.63;;;4.83;;
16063;SDS011;8136;53.172;8.256;2023-07-09T05:57:24;6.77;;;5.00;;
16063;SDS011;8136;53.172;8.256;2023-07-09T05:59:51;4.97;;;4.30;;
16063;SDS011;8136;53.172;8.256;2023-07-09T06:02:20;6.17;;;4.50;;
16063;SDS011;8136;53.172;8.256;2023-07-09T06:04:49;5.20;;;4.70;;
16063;SDS011;8136;53.172;8.256;2023-07-09T06:07:22;5.77;;;4.70;;
16063;SDS011;8136;53.172;8.256;2023-07-09T06:09:50;7.10;;;5.27;;
16063;SDS011;8136;53.172;8.256;2023-07-09T06:12:23;5.37;;;4.30;;
16063;SDS011;8136;53.172;8.256;2023-07-09T06:15:00;5.10;;;4.60;;
16063;SDS011;8136;53.172;8.256;2023-07-09T06:17:27;5.53;;;5.03;;
16063;SDS011;8136;53.172;8.256;2023-07-09T06:19:59;5.30;;;4.80;;
16063;SDS011;8136;53.172;8.256;2023-07-09T06:22:42;5.50;;;4.63;;
16063;SDS011;8136;53.172;8.256;2023-07-09T06:25:18;6.00;;;4.67;;
16063;SDS011;8136;53.172;8.256;2023-07-09T06:27:45;6.23;;;4.20;;
16063;SDS011;8136;53.172;8.256;2023-07-09T06:30:14;5.70;;;4.60;;
16063;SDS011;8136;53.172;8.256;2023-07-09T06:32:44;5.70;;;4.50;;
16063;SDS011;8136;53.172;8.256;2023-07-09T06:35:13;4.83;;;4.33;;
16063;SDS011;8136;53.172;8.256;2023-07-09T06:37:40;4.90;;;4.40;;
16063;SDS011;8136;53.172;8.256;2023-07-09T06:40:08;6.03;;;4.57;;
16063;SDS011;8136;53.172;8.256;2023-07-09T06:42:42;4.93;;;4.10;;
16063;SDS011;8136;53.172;8.256;2023-07-09T06:45:10;4.87;;;4.33;;
16063;SDS011;8136;53.172;8.256;2023-07-09T06:47:37;4.63;;;4.20;;
16063;SDS011;8136;53.172;8.256;2023-07-09T06:50:12;5.30;;;4.17;;
16063;SDS011;8136;53.172;8.256;2023-07-09T06:52:38;6.50;;;4.80;;
16063;SDS011;8136;53.172;8.256;2023-07-09T06:55:08;5.20;;;4.70;;
16063;SDS011;8136;53.172;8.256;2023-07-09T06:57:38;4.77;;;4.00;;
16063;SDS011;8136;53.172;8.256;2023-07-09T07:00:10;4.80;;;4.30;;
16063;SDS011;8136;53.172;8.256;2023-07-09T07:02:42;5.23;;;4.30;;
16063;SDS011;8136;53.172;8.256;2023-07-09T07:05:08;5.57;;;4.00;;
16063;SDS011;8136;53.172;8.256;2023-07-09T07:07:38;6.63;;;4.30;;
16063;SDS011;8136;53.172;8.256;2023-07-09T07:10:08;4.93;;;4.43;;
16063;SDS011;8136;53.172;8.256;2023-07-09T07:12:42;5.83;;;4.17;;
16063;SDS011;8136;53.172;8.256;2023-07-09T07:15:19;4.87;;;4.37;;
16063;SDS011;8136;53.172;8.256;2023-07-09T07:17:51;6.43;;;4.10;;
16063;SDS011;8136;53.172;8.256;2023-07-09T07:20:20;5.13;;;4.40;;
16063;SDS011;8136;53.172;8.256;2023-07-09T07:22:59;4.93;;;3.83;;
16063;SDS011;8136;53.172;8.256;2023-07-09T07:25:38;6.10;;;4.47;;
16063;SDS011;8136;53.172;8.256;2023-07-09T07:28:05;5.70;;;4.20;;
16063;SDS011;8136;53.172;8.256;2023-07-09T07:30:36;6.73;;;4.50;;
16063;SDS011;8136;53.172;8.256;2023-07-09T07:35:51;4.60;;;3.87;;
16063;SDS011;8136;53.172;8.256;2023-07-09T07:38:23;5.47;;;4.00;;
16063;SDS011;8136;53.172;8.256;2023-07-09T07:40:52;4.77;;;3.97;;
16063;SDS011;8136;53.172;8.256;2023-07-09T07:43:25;5.23;;;4.30;;
16063;SDS011;8136;53.172;8.256;2023-07-09T07:45:53;4.30;;;3.90;;
16063;SDS011;8136;53.172;8.256;2023-07-09T07:48:22;5.80;;;3.73;;
16063;SDS011;8136;53.172;8.256;2023-07-09T07:50:58;6.93;;;4.47;;
16063;SDS011;8136;53.172;8.256;2023-07-09T07:53:26;5.37;;;4.00;;
16063;SDS011;8136;53.172;8.256;2023-07-09T07:55:58;4.13;;;3.73;;
16063;SDS011;8136;53.172;8.256;2023-07-09T07:58:30;5.10;;;4.40;;
16063;SDS011;8136;53.172;8.256;2023-07-09T08:00:59;10.57;;;4.50;;
16063;SDS011;8136;53.172;8.256;2023-07-09T08:03:28;4.73;;;3.73;;
16063;SDS011;8136;53.172;8.256;2023-07-09T08:05:57;5.40;;;4.03;;
16063;SDS011;8136;53.172;8.256;2023-07-09T08:08:24;4.07;;;3.67;;
16063;SDS011;8136;53.172;8.256;2023-07-09T08:10:51;5.10;;;4.30;;
16063;SDS011;8136;53.172;8.256;2023-07-09T08:13:25;4.97;;;3.77;;
16063;SDS011;8136;53.172;8.256;2023-07-09T08:15:52;5.80;;;4.20;;
16063;SDS011;8136;53.172;8.256;2023-07-09T08:18:29;5.90;;;3.97;;
16063;SDS011;8136;53.172;8.256;2023-07-09T08:20:59;4.50;;;3.87;;
16063;SDS011;8136;53.172;8.256;2023-07-09T08:23:28;4.17;;;3.77;;
16063;SDS011;8136;53.172;8.256;2023-07-09T08:25:57;7.00;;;4.20;;
16063;SDS011;8136;53.172;8.256;2023-07-09T08:28:28;6.10;;;4.40;;
16063;SDS011;8136;53.172;8.256;2023-07-09T08:30:58;4.80;;;4.30;;
16063;SDS011;8136;53.172;8.256;2023-07-09T08:33:27;4.93;;;3.90;;
16063;SDS011;8136;53.172;8.256;2023-07-09T08:36:00;9.43;;;4.07;;
16063;SDS011;8136;53.172;8.256;2023-07-09T08:38:29;5.60;;;4.50;;
16063;SDS011;8136;53.172;8.256;2023-07-09T08:41:00;5.23;;;3.50;;
16063;SDS011;8136;53.172;8.256;2023-07-09T08:43:34;5.40;;;4.17;;
16063;SDS011;8136;53.172;8.256;2023-07-09T08:46:17;5.03;;;3.83;;
16063;SDS011;8136;53.172;8.256;2023-07-09T08:48:54;5.33;;;3.70;;
16063;SDS011;8136;53.172;8.256;2023-07-09T08:51:30;5.07;;;4.17;;
16063;SDS011;8136;53.172;8.256;2023-07-09T08:54:07;5.37;;;3.87;;
16063;SDS011;8136;53.172;8.256;2023-07-09T08:56:42;5.10;;;3.80;;
16063;SDS011;8136;53.172;8.256;2023-07-09T08:59:17;4.53;;;3.60;;
16063;SDS011;8136;53.172;8.256;2023-07-09T09:01:48;4.17;;;3.53;;
16063;SDS011;8136;53.172;8.256;2023-07-09T09:04:27;5.80;;;3.80;;
16063;SDS011;8136;53.172;8.256;2023-07-09T09:07:00;3.80;;;3.23;;
16063;SDS011;8136;53.172;8.256;2023-07-09T09:09:34;6.87;;;4.03;;
16063;SDS011;8136;53.172;8.256;2023-07-09T09:12:09;4.17;;;3.60;;
16063;SDS011;8136;53.172;8.256;2023-07-09T09:14:42;4.97;;;3.80;;
16063;SDS011;8136;53.172;8.256;2023-07-09T09:17:17;3.90;;;3.13;;
16063;SDS011;8136;53.172;8.256;2023-07-09T09:19:46;4.47;;;3.47;;
16063;SDS011;8136;53.172;8.256;2023-07-09T09:22:21;4.07;;;3.67;;
16063;SDS011;8136;53.172;8.256;2023-07-09T09:24:53;4.30;;;3.50;;
16063;SDS011;8136;53.172;8.256;2023-07-09T09:27:24;4.40;;;3.67;;
16063;SDS011;8136;53.172;8.256;2023-07-09T09:29:53;4.33;;;3.87;;
16063;SDS011;8136;53.172;8.256;2023-07-09T09:32:22;3.80;;;3.10;;
16063;SDS011;8136;53.172;8.256;2023-07-09T09:34:54;3.90;;;3.50;;
16063;SDS011;8136;53.172;8.256;2023-07-09T09:37:28;4.07;;;3.67;;
16063;SDS011;8136;53.172;8.256;2023-07-09T09:39:57;4.07;;;3.70;;
16063;SDS011;8136;53.172;8.256;2023-07-09T09:42:25;3.23;;;2.90;;
16063;SDS011;8136;53.172;8.256;2023-07-09T09:44:55;4.50;;;3.67;;
16063;SDS011;8136;53.172;8.256;2023-07-09T09:47:28;5.07;;;3.67;;
16063;SDS011;8136;53.172;8.256;2023-07-09T09:50:02;4.97;;;3.40;;
16063;SDS011;8136;53.172;8.256;2023-07-09T09:52:31;4.77;;;3.70;;
16063;SDS011;8136;53.172;8.256;2023-07-09T09:55:02;3.90;;;3.60;;
16063;SDS011;8136;53.172;8.256;2023-07-09T09:57:47;6.73;;;3.80;;
16063;SDS011;8136;53.172;8.256;2023-07-09T10:00:15;4.90;;;4.13;;
16063;SDS011;8136;53.172;8.256;2023-07-09T10:02:52;3.77;;;3.30;;
16063;SDS011;8136;53.172;8.256;2023-07-09T10:05:27;4.50;;;3.80;;
16063;SDS011;8136;53.172;8.256;2023-07-09T10:07:59;4.23;;;3.43;;
16063;SDS011;8136;53.172;8.256;2023-07-09T10:10:32;7.57;;;3.63;;
16063;SDS011;8136;53.172;8.256;2023-07-09T10:13:02;4.53;;;3.63;;
16063;SDS011;8136;53.172;8.256;2023-07-09T10:15:41;3.50;;;3.17;;
16063;SDS011;8136;53.172;8.256;2023-07-09T10:18:22;3.93;;;3.53;;
16063;SDS011;8136;53.172;8.256;2023-07-09T10:21:05;7.33;;;3.57;;
16063;SDS011;8136;53.172;8.256;2023-07-09T10:23:43;4.60;;;3.70;;
16063;SDS011;8136;53.172;8.256;2023-07-09T10:26:21;4.00;;;3.67;;
16063;SDS011;8136;53.172;8.256;2023-07-09T10:29:02;5.20;;;4.03;;
16063;SDS011;8136;53.172;8.256;2023-07-09T10:31:47;3.33;;;3.03;;
16063;SDS011;8136;53.172;8.256;2023-07-09T10:34:21;4.60;;;3.23;;
16063;SDS011;8136;53.172;8.256;2023-07-09T10:37:00;5.67;;;3.77;;
16063;SDS011;8136;53.172;8.256;2023-07-09T10:39:40;4.43;;;3.20;;
16063;SDS011;8136;53.172;8.256;2023-07-09T10:42:20;3.50;;;3.13;;
16063;SDS011;8136;53.172;8.256;2023-07-09T10:44:53;4.30;;;3.33;;
16063;SDS011;8136;53.172;8.256;2023-07-09T10:47:34;4.73;;;3.20;;
16063;SDS011;8136;53.172;8.256;2023-07-09T10:50:09;3.57;;;2.77;;
16063;SDS011;8136;53.172;8.256;2023-07-09T10:52:42;5.93;;;3.40;;
16063;SDS011;8136;53.172;8.256;2023-07-09T10:55:19;5.57;;;3.60;;
16063;SDS011;8136;53.172;8.256;2023-07-09T10:57:54;4.50;;;3.37;;
16063;SDS011;8136;53.172;8.256;2023-07-09T11:00:25;5.23;;;3.27;;
16063;SDS011;8136;53.172;8.256;2023-07-09T11:03:00;3.60;;;3.30;;
16063;SDS011;8136;53.172;8.256;2023-07-09T11:05:31;3.83;;;3.20;;
16063;SDS011;8136;53.172;8.256;2023-07-09T11:08:00;5.00;;;3.30;;
16063;SDS011;8136;53.172;8.256;2023-07-09T11:10:39;3.87;;;3.47;;
16063;SDS011;8136;53.172;8.256;2023-07-09T11:13:13;3.57;;;3.27;;
16063;SDS011;8136;53.172;8.256;2023-07-09T11:15:51;4.30;;;3.70;;
16063;SDS011;8136;53.172;8.256;2023-07-09T11:18:26;3.30;;;3.00;;
16063;SDS011;8136;53.172;8.256;2023-07-09T11:20:58;4.27;;;3.30;;
16063;SDS011;8136;53.172;8.256;2023-07-09T11:23:38;4.67;;;3.60;;
16063;SDS011;8136;53.172;8.256;2023-07-09T11:26:22;3.47;;;3.17;;
16063;SDS011;8136;53.172;8.256;2023-07-09T11:28:53;5.47;;;3.63;;
16063;SDS011;8136;53.172;8.256;2023-07-09T11:31:22;4.50;;;3.47;;
16063;SDS011;8136;53.172;8.256;2023-07-09T11:34:01;4.07;;;3.30;;
16063;SDS011;8136;53.172;8.256;2023-07-09T11:36:46;6.03;;;3.40;;
16063;SDS011;8136;53.172;8.256;2023-07-09T11:39:17;4.20;;;3.13;;
16063;SDS011;8136;53.172;8.256;2023-07-09T11:41:57;7.00;;;3.23;;
16063;SDS011;8136;53.172;8.256;2023-07-09T11:44:34;4.03;;;3.23;;
16063;SDS011;8136;53.172;8.256;2023-07-09T11:47:15;5.10;;;3.30;;
16063;SDS011;8136;53.172;8.256;2023-07-09T11:49:51;5.83;;;3.43;;
16063;SDS011;8136;53.172;8.256;2023-07-09T11:52:32;3.77;;;3.10;;
16063;SDS011;8136;53.172;8.256;2023-07-09T11:55:15;3.80;;;3.20;;
16063;SDS011;8136;53.172;8.256;2023-07-09T11:57:55;4.17;;;3.27;;
16063;SDS011;8136;53.172;8.256;2023-07-09T12:00:46;3.40;;;3.03;;
16063;SDS011;8136;53.172;8.256;2023-07-09T12:03:17;6.90;;;3.40;;
16063;SDS011;8136;53.172;8.256;2023-07-09T12:05:51;4.13;;;3.73;;
16063;SDS011;8136;53.172;8.256;2023-07-09T12:08:37;4.20;;;3.50;;
16063;SDS011;8136;53.172;8.256;2023-07-09T12:11:19;4.25;;;3.38;;
16063;SDS011;8136;53.172;8.256;2023-07-09T12:14:09;4.45;;;3.33;;
16063;SDS011;8136;53.172;8.256;2023-07-09T12:16:38;3.53;;;3.22;;
16063;SDS011;8136;53.172;8.256;2023-07-09T12:19:14;3.88;;;3.45;;
16063;SDS011;8136;53.172;8.256;2023-07-09T12:21:47;5.50;;;2.88;;
16063;SDS011;8136;53.172;8.256;2023-07-09T12:24:24;5.18;;;3.47;;
16063;SDS011;8136;53.172;8.256;2023-07-09T12:26:53;5.82;;;3.65;;
16063;SDS011;8136;53.172;8.256;2023-07-09T12:29:30;4.68;;;3.60;;
16063;SDS011;8136;53.172;8.256;2023-07-09T12:32:09;5.95;;;4.00;;
16063;SDS011;8136;53.172;8.256;2023-07-09T12:34:41;4.18;;;3.50;;
16063;SDS011;8136;53.172;8.256;2023-07-09T12:37:24;6.95;;;3.90;;
16063;SDS011;8136;53.172;8.256;2023-07-09T12:40:28;5.57;;;3.75;;
16063;SDS011;8136;53.172;8.256;2023-07-09T12:43:00;4.07;;;3.67;;
16063;SDS011;8136;53.172;8.256;2023-07-09T12:45:30;5.35;;;3.60;;
16063;SDS011;8136;53.172;8.256;2023-07-09T12:47:57;4.35;;;3.83;;
16063;SDS011;8136;53.172;8.256;2023-07-09T12:50:30;4.57;;;3.70;;
16063;SDS011;8136;53.172;8.256;2023-07-09T12:53:01;4.38;;;3.60;;
16063;SDS011;8136;53.172;8.256;2023-07-09T12:55:54;4.15;;;3.72;;
16063;SDS011;8136;53.172;8.256;2023-07-09T12:58:27;4.68;;;3.95;;
16063;SDS011;8136;53.172;8.256;2023-07-09T13:01:06;5.25;;;4.53;;
16063;SDS011;8136;53.172;8.256;2023-07-09T13:03:34;3.72;;;3.40;;
16063;SDS011;8136;53.172;8.256;2023-07-09T13:06:02;4.57;;;3.75;;
16063;SDS011;8136;53.172;8.256;2023-07-09T13:08:41;4.72;;;3.80;;
16063;SDS011;8136;53.172;8.256;2023-07-09T13:11:15;4.40;;;4.00;;
16063;SDS011;8136;53.172;8.256;2023-07-09T13:13:56;5.97;;;3.80;;
16063;SDS011;8136;53.172;8.256;2023-07-09T13:16:41;5.85;;;3.88;;
16063;SDS011;8136;53.172;8.256;2023-07-09T13:19:10;4.85;;;3.83;;
16063;SDS011;8136;53.172;8.256;2023-07-09T13:21:48;4.50;;;4.10;;
16063;SDS011;8136;53.172;8.256;2023-07-09T13:24:17;3.90;;;3.40;;
16063;SDS011;8136;53.172;8.256;2023-07-09T13:26:50;6.55;;;4.20;;
16063;SDS011;8136;53.172;8.256;2023-07-09T13:29:18;5.43;;;4.05;;
16063;SDS011;8136;53.172;8.256;2023-07-09T13:31:54;6.25;;;3.58;;
16063;SDS011;8136;53.172;8.256;2023-07-09T13:34:26;4.07;;;3.60;;
16063;SDS011;8136;53.172;8.256;2023-07-09T13:36:58;5.13;;;3.53;;
16063;SDS011;8136;53.172;8.256;2023-07-09T13:39:30;6.88;;;4.10;;
16063;SDS011;8136;53.172;8.256;2023-07-09T13:42:08;6.07;;;3.72;;
16063;SDS011;8136;53.172;8.256;2023-07-09T13:44:36;4.53;;;4.13;;
16063;SDS011;8136;53.172;8.256;2023-07-09T13:47:12;5.68;;;3.88;;
16063;SDS011;8136;53.172;8.256;2023-07-09T13:50:03;5.03;;;3.75;;
16063;SDS011;8136;53.172;8.256;2023-07-09T13:52:45;4.70;;;3.60;;
16063;SDS011;8136;53.172;8.256;2023-07-09T13:55:17;5.43;;;3.65;;
16063;SDS011;8136;53.172;8.256;2023-07-09T13:57:46;5.95;;;3.92;;
16063;SDS011;8136;53.172;8.256;2023-07-09T14:00:13;4.13;;;3.53;;
16063;SDS011;8136;53.172;8.256;2023-07-09T14:02:45;3.50;;;3.10;;
16063;SDS011;8136;53.172;8.256;2023-07-09T14:05:16;5.38;;;3.50;;
16063;SDS011;8136;53.172;8.256;2023-07-09T14:07:56;4.82;;;3.78;;
16063;SDS011;8136;53.172;8.256;2023-07-09T14:10:23;5.78;;;3.67;;
16063;SDS011;8136;53.172;8.256;2023-07-09T14:12:56;5.70;;;3.50;;
16063;SDS011;8136;53.172;8.256;2023-07-09T14:18:46;3.85;;;3.45;;
16063;SDS011;8136;53.172;8.256;2023-07-09T14:21:13;4.47;;;3.75;;
16063;SDS011;8136;53.172;8.256;2023-07-09T14:23:50;3.63;;;3.17;;
16063;SDS011;8136;53.172;8.256;2023-07-09T14:26:16;7.75;;;3.88;;
16063;SDS011;8136;53.172;8.256;2023-07-09T14:28:56;5.32;;;3.50;;
16063;SDS011;8136;53.172;8.256;2023-07-09T14:31:30;4.72;;;3.22;;
16063;SDS011;8136;53.172;8.256;2023-07-09T14:34:29;4.28;;;3.20;;
16063;SDS011;8136;53.172;8.256;2023-07-09T14:37:06;7.07;;;3.13;;
16063;SDS011;8136;53.172;8.256;2023-07-09T14:39:48;5.85;;;3.45;;
16063;SDS011;8136;53.172;8.256;2023-07-09T14:44:54;5.32;;;3.53;;
16063;SDS011;8136;53.172;8.256;2023-07-09T14:47:33;4.75;;;3.35;;
16063;SDS011;8136;53.172;8.256;2023-07-09T14:50:19;5.00;;;3.25;;
16063;SDS011;8136;53.172;8.256;2023-07-09T14:53:10;4.32;;;3.20;;
16063;SDS011;8136;53.172;8.256;2023-07-09T15:02:34;6.70;;;3.38;;
16063;SDS011;8136;53.172;8.256;2023-07-09T15:15:43;4.28;;;3.33;;
16063;SDS011;8136;53.172;8.256;2023-07-09T15:18:43;8.80;;;6.47;;
16063;SDS011;8136;53.172;8.256;2023-07-09T15:21:19;4.85;;;4.28;;
16063;SDS011;8136;53.172;8.256;2023-07-09T15:24:38;7.28;;;3.67;;
16063;SDS011;8136;53.172;8.256;2023-07-09T15:34:31;10.90;;;7.63;;
16063;SDS011;8136;53.172;8.256;2023-07-09T16:12:56;4.93;;;4.03;;
16063;SDS011;8136;53.172;8.256;2023-07-09T16:19:10;6.07;;;4.25;;
16063;SDS011;8136;53.172;8.256;2023-07-09T16:25:22;8.87;;;3.87;;
16063;SDS011;8136;53.172;8.256;2023-07-09T16:28:17;8.60;;;3.63;;
16063;SDS011;8136;53.172;8.256;2023-07-09T16:31:03;5.73;;;4.00;;
16063;SDS011;8136;53.172;8.256;2023-07-09T16:33:48;7.07;;;4.60;;
16063;SDS011;8136;53.172;8.256;2023-07-09T16:39:39;6.57;;;4.30;;
16063;SDS011;8136;53.172;8.256;2023-07-09T16:42:20;6.23;;;4.50;;
16063;SDS011;8136;53.172;8.256;2023-07-09T16:51:46;5.70;;;4.20;;
16063;SDS011;8136;53.172;8.256;2023-07-09T17:29:11;6.37;;;4.57;;
16063;SDS011;8136;53.172;8.256;2023-07-09T17:36:04;8.67;;;5.20;;
16063;SDS011;8136;53.172;8.256;2023-07-09T18:01:15;4.73;;;2.80;;
16063;SDS011;8136;53.172;8.256;2023-07-09T18:03:49;7.07;;;3.03;;
16063;SDS011;8136;53.172;8.256;2023-07-09T18:06:41;6.73;;;3.03;;